sensor_id;sensor_type;location;lat;lon;timestamp;pressure;altitude;pressure_sealevel;temperature;humidity
21182;BME280;10749;46.296;7.524;2022-12-18T00:00:45;95789.22;;;2.40;56.94
21182;BME280;10749;46.296;7.524;2022-12-18T00:03:12;95799.13;;;2.35;56.96
21182;BME280;10749;46.296;7.524;2022-12-18T00:05:48;95792.31;;;2.32;56.97
21182;BME280;10749;46.296;7.524;2022-12-18T00:08:14;95797.16;;;2.26;57.11
21182;BME280;10749;46.296;7.524;2022-12-18T00:10:40;95800.00;;;2.23;57.25
21182;BME280;10749;46.296;7.524;2022-12-18T00:13:06;95802.47;;;2.24;57.10
21182;BME280;10749;46.296;7.524;2022-12-18T00:15:37;95798.22;;;2.11;57.14
21182;BME280;10749;46.296;7.524;2022-12-18T00:18:03;95811.06;;;2.14;57.20
21182;BME280;10749;46.296;7.524;2022-12-18T00:20:28;95811.06;;;2.14;57.22
21182;BME280;10749;46.296;7.524;2022-12-18T00:22:54;95814.81;;;2.10;57.33
21182;BME280;10749;46.296;7.524;2022-12-18T00:25:19;95819.31;;;2.08;57.34
21182;BME280;10749;46.296;7.524;2022-12-18T00:27:45;95808.44;;;2.01;57.17
21182;BME280;10749;46.296;7.524;2022-12-18T00:30:11;95819.00;;;2.00;57.34
21182;BME280;10749;46.296;7.524;2022-12-18T00:32:36;95811.59;;;1.94;57.27
21182;BME280;10749;46.296;7.524;2022-12-18T00:35:02;95814.06;;;1.95;57.21
21182;BME280;10749;46.296;7.524;2022-12-18T00:37:28;95817.84;;;1.91;57.31
21182;BME280;10749;46.296;7.524;2022-12-18T00:39:53;95830.81;;;1.93;57.35
21182;BME280;10749;46.296;7.524;2022-12-18T00:42:19;95821.81;;;1.97;57.35
21182;BME280;10749;46.296;7.524;2022-12-18T00:45:03;95829.13;;;1.92;57.33
21182;BME280;10749;46.296;7.524;2022-12-18T00:47:28;95832.47;;;1.94;57.19
21182;BME280;10749;46.296;7.524;2022-12-18T00:49:54;95837.69;;;1.94;56.90
21182;BME280;10749;46.296;7.524;2022-12-18T00:52:19;95838.09;;;1.88;56.88
21182;BME280;10749;46.296;7.524;2022-12-18T00:54:44;95837.56;;;1.82;56.82
21182;BME280;10749;46.296;7.524;2022-12-18T00:57:09;95841.84;;;1.83;56.99
21182;BME280;10749;46.296;7.524;2022-12-18T00:59:35;95845.22;;;1.85;56.96
21182;BME280;10749;46.296;7.524;2022-12-18T01:02:00;95841.44;;;1.90;56.94
21182;BME280;10749;46.296;7.524;2022-12-18T01:04:25;95842.16;;;1.92;57.17
21182;BME280;10749;46.296;7.524;2022-12-18T01:06:51;95850.00;;;1.92;57.30
21182;BME280;10749;46.296;7.524;2022-12-18T01:09:16;95854.50;;;1.90;57.05
21182;BME280;10749;46.296;7.524;2022-12-18T01:11:41;95859.72;;;1.90;57.02
21182;BME280;10749;46.296;7.524;2022-12-18T01:14:07;95858.97;;;1.88;57.08
21182;BME280;10749;46.296;7.524;2022-12-18T01:16:32;95863.19;;;1.90;56.96
21182;BME280;10749;46.296;7.524;2022-12-18T01:18:57;95858.59;;;1.94;57.06
21182;BME280;10749;46.296;7.524;2022-12-18T01:21:23;95858.16;;;2.00;56.79
21182;BME280;10749;46.296;7.524;2022-12-18T01:23:53;95862.03;;;1.94;57.27
21182;BME280;10749;46.296;7.524;2022-12-18T01:26:19;95863.81;;;1.94;57.11
21182;BME280;10749;46.296;7.524;2022-12-18T01:28:44;95863.06;;;1.92;57.15
21182;BME280;10749;46.296;7.524;2022-12-18T01:33:38;95863.47;;;1.85;57.26
21182;BME280;10749;46.296;7.524;2022-12-18T01:36:03;95862.03;;;1.81;56.88
21182;BME280;10749;46.296;7.524;2022-12-18T01:38:29;95861.47;;;1.76;56.84
21182;BME280;10749;46.296;7.524;2022-12-18T01:40:58;95854.38;;;1.78;56.97
21182;BME280;10749;46.296;7.524;2022-12-18T01:43:43;95868.88;;;1.82;57.08
21182;BME280;10749;46.296;7.524;2022-12-18T01:46:09;95873.09;;;1.85;57.14
21182;BME280;10749;46.296;7.524;2022-12-18T01:48:34;95868.72;;;1.85;57.26
21182;BME280;10749;46.296;7.524;2022-12-18T01:51:00;95869.94;;;1.80;57.14
21182;BME280;10749;46.296;7.524;2022-12-18T01:53:26;95874.66;;;1.88;57.00
21182;BME280;10749;46.296;7.524;2022-12-18T01:55:54;95867.75;;;1.86;56.95
21182;BME280;10749;46.296;7.524;2022-12-18T02:01:01;95881.84;;;1.84;56.67
21182;BME280;10749;46.296;7.524;2022-12-18T02:03:29;95890.28;;;1.75;56.78
21182;BME280;10749;46.296;7.524;2022-12-18T02:06:03;95884.84;;;1.65;57.02
21182;BME280;10749;46.296;7.524;2022-12-18T02:11:16;95890.25;;;1.62;56.92
21182;BME280;10749;46.296;7.524;2022-12-18T02:17:10;95884.84;;;1.65;56.80
21182;BME280;10749;46.296;7.524;2022-12-18T02:19:35;95884.53;;;1.70;56.71
21182;BME280;10749;46.296;7.524;2022-12-18T02:27:50;95884.59;;;1.56;56.94
21182;BME280;10749;46.296;7.524;2022-12-18T02:30:17;95879.19;;;1.59;56.74
21182;BME280;10749;46.296;7.524;2022-12-18T02:32:48;95876.16;;;1.52;56.71
21182;BME280;10749;46.296;7.524;2022-12-18T02:35:20;95878.31;;;1.46;57.01
21182;BME280;10749;46.296;7.524;2022-12-18T02:37:48;95878.59;;;1.41;56.91
21182;BME280;10749;46.296;7.524;2022-12-18T02:40:14;95883.09;;;1.39;56.77
21182;BME280;10749;46.296;7.524;2022-12-18T02:42:41;95883.63;;;1.44;56.82
21182;BME280;10749;46.296;7.524;2022-12-18T02:45:06;95877.97;;;1.37;56.94
21182;BME280;10749;46.296;7.524;2022-12-18T02:47:36;95879.56;;;1.40;56.89
21182;BME280;10749;46.296;7.524;2022-12-18T02:50:18;95881.19;;;1.41;56.88
21182;BME280;10749;46.296;7.524;2022-12-18T02:57:54;95884.47;;;1.45;56.84
21182;BME280;10749;46.296;7.524;2022-12-18T03:00:29;95882.88;;;1.42;56.83
21182;BME280;10749;46.296;7.524;2022-12-18T03:03:16;95882.75;;;1.31;56.94
21182;BME280;10749;46.296;7.524;2022-12-18T03:05:52;95886.38;;;1.28;56.86
21182;BME280;10749;46.296;7.524;2022-12-18T03:08:24;95887.41;;;1.26;56.62
21182;BME280;10749;46.296;7.524;2022-12-18T03:10:59;95887.41;;;1.26;56.97
21182;BME280;10749;46.296;7.524;2022-12-18T03:13:31;95888.25;;;1.26;56.70
21182;BME280;10749;46.296;7.524;2022-12-18T03:15:59;95892.25;;;1.32;56.67
21182;BME280;10749;46.296;7.524;2022-12-18T03:18:30;95900.91;;;1.32;56.51
21182;BME280;10749;46.296;7.524;2022-12-18T03:21:00;95895.16;;;1.27;56.56
21182;BME280;10749;46.296;7.524;2022-12-18T03:23:34;95899.31;;;1.30;56.66
21182;BME280;10749;46.296;7.524;2022-12-18T03:26:05;95903.69;;;1.29;56.64
21182;BME280;10749;46.296;7.524;2022-12-18T03:28:34;95906.13;;;1.32;56.79
21182;BME280;10749;46.296;7.524;2022-12-18T03:31:03;95904.53;;;1.30;56.93
21182;BME280;10749;46.296;7.524;2022-12-18T03:35:56;95919.81;;;1.36;56.37
21182;BME280;10749;46.296;7.524;2022-12-18T03:38:22;95925.19;;;1.33;56.47
21182;BME280;10749;46.296;7.524;2022-12-18T03:44:06;95923.19;;;1.24;56.29
21182;BME280;10749;46.296;7.524;2022-12-18T03:47:04;95920.78;;;1.21;56.44
21182;BME280;10749;46.296;7.524;2022-12-18T03:49:44;95918.16;;;1.21;56.67
21182;BME280;10749;46.296;7.524;2022-12-18T03:52:21;95918.91;;;1.23;56.68
21182;BME280;10749;46.296;7.524;2022-12-18T03:54:49;95909.97;;;1.27;56.57
21182;BME280;10749;46.296;7.524;2022-12-18T03:57:19;95911.22;;;1.34;56.49
21182;BME280;10749;46.296;7.524;2022-12-18T03:59:47;95911.88;;;1.37;56.67
21182;BME280;10749;46.296;7.524;2022-12-18T04:02:16;95918.47;;;1.43;56.70
21182;BME280;10749;46.296;7.524;2022-12-18T04:04:43;95926.31;;;1.43;56.53
21182;BME280;10749;46.296;7.524;2022-12-18T04:07:10;95927.72;;;1.34;56.81
21182;BME280;10749;46.296;7.524;2022-12-18T04:09:38;95928.78;;;1.32;56.72
21182;BME280;10749;46.296;7.524;2022-12-18T04:12:05;95926.34;;;1.29;56.69
21182;BME280;10749;46.296;7.524;2022-12-18T04:14:30;95940.91;;;1.19;56.58
21182;BME280;10749;46.296;7.524;2022-12-18T04:17:00;95931.47;;;1.16;56.78
21182;BME280;10749;46.296;7.524;2022-12-18T04:19:26;95940.34;;;1.14;56.55
21182;BME280;10749;46.296;7.524;2022-12-18T04:21:51;95938.94;;;1.08;56.67
21182;BME280;10749;46.296;7.524;2022-12-18T04:24:16;95932.91;;;1.08;57.14
21182;BME280;10749;46.296;7.524;2022-12-18T04:26:42;95933.28;;;1.02;56.72
21182;BME280;10749;46.296;7.524;2022-12-18T04:29:07;95937.59;;;1.03;56.51
21182;BME280;10749;46.296;7.524;2022-12-18T04:31:32;95940.47;;;0.98;56.51
21182;BME280;10749;46.296;7.524;2022-12-18T04:33:58;95935.63;;;0.92;56.66
21182;BME280;10749;46.296;7.524;2022-12-18T04:36:23;95939.84;;;0.95;56.53
21182;BME280;10749;46.296;7.524;2022-12-18T04:38:48;95941.88;;;0.89;56.66
21182;BME280;10749;46.296;7.524;2022-12-18T04:41:14;95946.34;;;0.87;56.72
21182;BME280;10749;46.296;7.524;2022-12-18T04:43:39;95943.94;;;0.84;56.60
21182;BME280;10749;46.296;7.524;2022-12-18T04:46:06;95949.13;;;0.84;56.56
21182;BME280;10749;46.296;7.524;2022-12-18T04:48:32;95945.59;;;0.85;56.51
21182;BME280;10749;46.296;7.524;2022-12-18T04:50:57;95948.28;;;0.84;56.55
21182;BME280;10749;46.296;7.524;2022-12-18T04:53:23;95951.94;;;0.81;56.64
21182;BME280;10749;46.296;7.524;2022-12-18T04:55:48;95950.81;;;0.85;56.53
21182;BME280;10749;46.296;7.524;2022-12-18T04:58:13;95953.72;;;0.81;56.70
21182;BME280;10749;46.296;7.524;2022-12-18T05:00:39;95967.66;;;0.80;56.72
21182;BME280;10749;46.296;7.524;2022-12-18T05:03:04;95960.97;;;0.76;56.71
21182;BME280;10749;46.296;7.524;2022-12-18T05:05:30;95963.69;;;0.74;56.56
21182;BME280;10749;46.296;7.524;2022-12-18T05:07:55;95971.88;;;0.82;56.21
21182;BME280;10749;46.296;7.524;2022-12-18T05:10:20;95974.91;;;0.75;56.32
21182;BME280;10749;46.296;7.524;2022-12-18T05:12:46;95980.25;;;0.73;56.23
21182;BME280;10749;46.296;7.524;2022-12-18T05:15:26;95981.63;;;0.79;56.56
21182;BME280;10749;46.296;7.524;2022-12-18T05:17:51;95979.75;;;0.81;56.50
21182;BME280;10749;46.296;7.524;2022-12-18T05:20:16;95975.47;;;0.80;56.69
21182;BME280;10749;46.296;7.524;2022-12-18T05:22:43;95976.88;;;0.85;56.55
21182;BME280;10749;46.296;7.524;2022-12-18T05:25:08;95974.63;;;0.79;56.43
21182;BME280;10749;46.296;7.524;2022-12-18T05:27:33;95982.94;;;0.86;56.48
21182;BME280;10749;46.296;7.524;2022-12-18T05:29:59;95985.44;;;0.87;56.59
21182;BME280;10749;46.296;7.524;2022-12-18T05:32:24;95980.22;;;0.87;56.58
21182;BME280;10749;46.296;7.524;2022-12-18T05:34:49;95986.28;;;0.88;56.47
21182;BME280;10749;46.296;7.524;2022-12-18T05:37:15;95983.03;;;0.84;56.70
21182;BME280;10749;46.296;7.524;2022-12-18T05:39:42;95978.00;;;0.81;56.48
21182;BME280;10749;46.296;7.524;2022-12-18T05:42:07;95982.09;;;0.85;56.26
21182;BME280;10749;46.296;7.524;2022-12-18T05:44:33;95979.13;;;0.77;56.47
21182;BME280;10749;46.296;7.524;2022-12-18T05:46:59;95988.06;;;0.73;56.68
21182;BME280;10749;46.296;7.524;2022-12-18T05:49:24;95985.66;;;0.70;56.82
21182;BME280;10749;46.296;7.524;2022-12-18T05:51:49;95989.91;;;0.71;56.63
21182;BME280;10749;46.296;7.524;2022-12-18T05:54:14;95989.91;;;0.71;55.91
21182;BME280;10749;46.296;7.524;2022-12-18T05:56:40;95998.84;;;0.67;56.01
21182;BME280;10749;46.296;7.524;2022-12-18T05:59:05;95993.81;;;0.64;56.23
21182;BME280;10749;46.296;7.524;2022-12-18T06:01:30;95996.41;;;0.64;56.54
21182;BME280;10749;46.296;7.524;2022-12-18T06:03:56;95997.44;;;0.62;56.49
21182;BME280;10749;46.296;7.524;2022-12-18T06:06:26;95999.94;;;0.63;56.39
21182;BME280;10749;46.296;7.524;2022-12-18T06:08:53;95998.00;;;0.67;56.51
21182;BME280;10749;46.296;7.524;2022-12-18T06:11:22;96002.38;;;0.66;56.61
21182;BME280;10749;46.296;7.524;2022-12-18T06:13:54;96007.59;;;0.66;56.48
21182;BME280;10749;46.296;7.524;2022-12-18T06:16:20;96002.56;;;0.63;56.46
21182;BME280;10749;46.296;7.524;2022-12-18T06:18:45;96005.91;;;0.65;56.38
21182;BME280;10749;46.296;7.524;2022-12-18T06:21:11;96004.59;;;0.58;56.52
21182;BME280;10749;46.296;7.524;2022-12-18T06:23:36;96009.16;;;0.55;56.71
21182;BME280;10749;46.296;7.524;2022-12-18T06:26:07;96009.53;;;0.49;56.38
21182;BME280;10749;46.296;7.524;2022-12-18T06:28:33;96011.28;;;0.48;56.47
21182;BME280;10749;46.296;7.524;2022-12-18T06:30:58;96015.38;;;0.52;56.22
21182;BME280;10749;46.296;7.524;2022-12-18T06:33:26;96009.59;;;0.47;56.05
21182;BME280;10749;46.296;7.524;2022-12-18T06:35:52;96020.41;;;0.55;56.19
21182;BME280;10749;46.296;7.524;2022-12-18T06:38:17;96017.06;;;0.53;56.43
21182;BME280;10749;46.296;7.524;2022-12-18T06:40:43;96023.66;;;0.44;56.34
21182;BME280;10749;46.296;7.524;2022-12-18T06:43:08;96030.91;;;0.39;56.42
21182;BME280;10749;46.296;7.524;2022-12-18T06:45:34;96032.47;;;0.42;56.30
21182;BME280;10749;46.296;7.524;2022-12-18T06:47:59;96032.41;;;0.43;56.32
21182;BME280;10749;46.296;7.524;2022-12-18T06:50:24;96025.69;;;0.39;56.48
21182;BME280;10749;46.296;7.524;2022-12-18T06:52:49;96028.88;;;0.44;56.33
21182;BME280;10749;46.296;7.524;2022-12-18T06:55:15;96033.41;;;0.41;56.31
21182;BME280;10749;46.296;7.524;2022-12-18T06:57:40;96047.19;;;0.43;56.22
21182;BME280;10749;46.296;7.524;2022-12-18T07:00:06;96041.97;;;0.43;56.29
21182;BME280;10749;46.296;7.524;2022-12-18T07:02:32;96044.97;;;0.51;56.33
21182;BME280;10749;46.296;7.524;2022-12-18T07:04:58;96045.09;;;0.64;56.24
21182;BME280;10749;46.296;7.524;2022-12-18T07:07:23;96047.41;;;0.68;56.01
21182;BME280;10749;46.296;7.524;2022-12-18T07:09:52;96056.66;;;0.74;56.20
21182;BME280;10749;46.296;7.524;2022-12-18T07:12:17;96055.63;;;0.76;56.19
21182;BME280;10749;46.296;7.524;2022-12-18T07:14:43;96065.00;;;0.79;56.38
21182;BME280;10749;46.296;7.524;2022-12-18T07:17:08;96062.97;;;0.84;56.33
21182;BME280;10749;46.296;7.524;2022-12-18T07:19:34;96073.25;;;0.87;55.93
21182;BME280;10749;46.296;7.524;2022-12-18T07:21:59;96069.41;;;0.78;56.01
21182;BME280;10749;46.296;7.524;2022-12-18T07:24:40;96078.50;;;0.71;56.06
21182;BME280;10749;46.296;7.524;2022-12-18T07:27:05;96080.44;;;0.68;56.20
21182;BME280;10749;46.296;7.524;2022-12-18T07:29:30;96082.66;;;0.60;56.31
21182;BME280;10749;46.296;7.524;2022-12-18T07:31:56;96081.81;;;0.59;55.92
21182;BME280;10749;46.296;7.524;2022-12-18T07:34:21;96089.81;;;0.56;56.00
21182;BME280;10749;46.296;7.524;2022-12-18T07:36:46;96083.31;;;0.63;55.97
21182;BME280;10749;46.296;7.524;2022-12-18T07:39:12;96092.25;;;0.59;56.01
21182;BME280;10749;46.296;7.524;2022-12-18T07:41:37;96090.03;;;0.67;56.09
21182;BME280;10749;46.296;7.524;2022-12-18T07:44:03;96094.31;;;0.68;56.17
21182;BME280;10749;46.296;7.524;2022-12-18T07:46:29;96104.09;;;0.65;56.08
21182;BME280;10749;46.296;7.524;2022-12-18T07:48:54;96111.81;;;0.66;56.11
21182;BME280;10749;46.296;7.524;2022-12-18T07:51:19;96109.63;;;0.74;56.25
21182;BME280;10749;46.296;7.524;2022-12-18T07:53:45;96113.34;;;0.84;56.21
21182;BME280;10749;46.296;7.524;2022-12-18T07:56:11;96114.09;;;0.86;56.51
21182;BME280;10749;46.296;7.524;2022-12-18T07:58:37;96122.00;;;0.85;56.26
21182;BME280;10749;46.296;7.524;2022-12-18T08:01:08;96122.84;;;0.85;56.35
21182;BME280;10749;46.296;7.524;2022-12-18T08:03:34;96126.56;;;0.81;56.37
21182;BME280;10749;46.296;7.524;2022-12-18T08:06:00;96123.84;;;0.83;56.04
21182;BME280;10749;46.296;7.524;2022-12-18T08:08:26;96135.31;;;0.80;56.04
21182;BME280;10749;46.296;7.524;2022-12-18T08:10:52;96129.34;;;0.78;56.19
21182;BME280;10749;46.296;7.524;2022-12-18T08:13:17;96133.81;;;0.76;56.03
21182;BME280;10749;46.296;7.524;2022-12-18T08:15:42;96136.41;;;0.76;56.24
21182;BME280;10749;46.296;7.524;2022-12-18T08:18:08;96130.63;;;0.71;56.11
21182;BME280;10749;46.296;7.524;2022-12-18T08:20:33;96129.03;;;0.69;56.23
21182;BME280;10749;46.296;7.524;2022-12-18T08:22:58;96133.22;;;0.71;56.11
21182;BME280;10749;46.296;7.524;2022-12-18T08:25:24;96134.34;;;0.67;56.15
21182;BME280;10749;46.296;7.524;2022-12-18T08:27:49;96135.16;;;0.68;56.27
21182;BME280;10749;46.296;7.524;2022-12-18T08:30:14;96137.31;;;0.75;56.06
21182;BME280;10749;46.296;7.524;2022-12-18T08:32:40;96135.88;;;0.85;56.21
21182;BME280;10749;46.296;7.524;2022-12-18T08:35:05;96127.13;;;0.86;56.27
21182;BME280;10749;46.296;7.524;2022-12-18T08:37:31;96137.75;;;0.98;56.16
21182;BME280;10749;46.296;7.524;2022-12-18T08:39:56;96128.63;;;1.05;56.14
21182;BME280;10749;46.296;7.524;2022-12-18T08:42:22;96134.88;;;1.16;56.31
21182;BME280;10749;46.296;7.524;2022-12-18T08:45:06;96134.72;;;1.33;56.40
21182;BME280;10749;46.296;7.524;2022-12-18T08:47:32;96132.97;;;1.48;56.51
21182;BME280;10749;46.296;7.524;2022-12-18T08:49:57;96133.91;;;1.61;56.50
21182;BME280;10749;46.296;7.524;2022-12-18T08:52:22;96131.66;;;1.69;56.56
21182;BME280;10749;46.296;7.524;2022-12-18T08:54:47;96131.25;;;1.90;56.72
21182;BME280;10749;46.296;7.524;2022-12-18T08:57:13;96126.94;;;2.03;56.53
21182;BME280;10749;46.296;7.524;2022-12-18T08:59:38;96124.69;;;2.11;56.33
21182;BME280;10749;46.296;7.524;2022-12-18T09:02:03;96127.34;;;2.23;56.52
21182;BME280;10749;46.296;7.524;2022-12-18T09:04:29;96128.34;;;2.35;56.59
21182;BME280;10749;46.296;7.524;2022-12-18T09:06:54;96124.63;;;2.52;56.69
21182;BME280;10749;46.296;7.524;2022-12-18T09:09:19;96117.75;;;2.63;56.27
21182;BME280;10749;46.296;7.524;2022-12-18T09:11:45;96124.53;;;2.66;56.40
21182;BME280;10749;46.296;7.524;2022-12-18T09:14:10;96119.94;;;2.69;56.33
21182;BME280;10749;46.296;7.524;2022-12-18T09:16:36;96115.47;;;2.71;56.55
21182;BME280;10749;46.296;7.524;2022-12-18T09:19:03;96123.34;;;2.84;56.40
21182;BME280;10749;46.296;7.524;2022-12-18T09:21:31;96115.06;;;2.90;56.58
21182;BME280;10749;46.296;7.524;2022-12-18T09:23:57;96109.97;;;3.01;56.64
21182;BME280;10749;46.296;7.524;2022-12-18T09:26:23;96115.09;;;3.15;56.68
21182;BME280;10749;46.296;7.524;2022-12-18T09:28:50;96115.41;;;3.23;56.63
21182;BME280;10749;46.296;7.524;2022-12-18T09:31:17;96116.47;;;3.34;56.58
21182;BME280;10749;46.296;7.524;2022-12-18T09:33:43;96111.88;;;3.37;56.48
21182;BME280;10749;46.296;7.524;2022-12-18T09:36:12;96112.09;;;3.34;56.50
21182;BME280;10749;46.296;7.524;2022-12-18T09:38:37;96112.63;;;3.39;56.65
21182;BME280;10749;46.296;7.524;2022-12-18T09:41:13;96107.56;;;3.36;56.33
21182;BME280;10749;46.296;7.524;2022-12-18T09:43:47;96110.84;;;3.27;56.08
21182;BME280;10749;46.296;7.524;2022-12-18T09:46:19;96115.09;;;3.28;56.12
21182;BME280;10749;46.296;7.524;2022-12-18T09:48:52;96124.31;;;3.21;56.19
21182;BME280;10749;46.296;7.524;2022-12-18T09:51:23;96109.56;;;3.20;55.92
21182;BME280;10749;46.296;7.524;2022-12-18T09:53:55;96106.22;;;3.18;56.24
21182;BME280;10749;46.296;7.524;2022-12-18T09:56:22;96117.31;;;3.34;56.33
21182;BME280;10749;46.296;7.524;2022-12-18T09:58:57;96111.88;;;3.37;56.17
21182;BME280;10749;46.296;7.524;2022-12-18T10:01:23;96107.38;;;3.39;56.11
21182;BME280;10749;46.296;7.524;2022-12-18T10:03:50;96104.09;;;3.48;56.09
21182;BME280;10749;46.296;7.524;2022-12-18T10:06:36;96103.69;;;3.54;56.23
21182;BME280;10749;46.296;7.524;2022-12-18T10:17:31;96099.81;;;4.09;56.33
21182;BME280;10749;46.296;7.524;2022-12-18T10:28:14;96098.50;;;4.51;55.87
21182;BME280;10749;46.296;7.524;2022-12-18T10:30:42;96092.50;;;4.49;56.19
21182;BME280;10749;46.296;7.524;2022-12-18T10:33:16;96084.84;;;4.70;56.39
21182;BME280;10749;46.296;7.524;2022-12-18T10:35:43;96086.75;;;4.68;56.03
21182;BME280;10749;46.296;7.524;2022-12-18T10:40:54;96084.16;;;4.79;55.92
21182;BME280;10749;46.296;7.524;2022-12-18T10:43:39;96073.44;;;4.93;55.90
21182;BME280;10749;46.296;7.524;2022-12-18T10:48:36;96066.56;;;5.03;55.58
21182;BME280;10749;46.296;7.524;2022-12-18T10:51:05;96062.91;;;5.17;55.66
21182;BME280;10749;46.296;7.524;2022-12-18T10:53:33;96066.03;;;5.22;55.47
21182;BME280;10749;46.296;7.524;2022-12-18T10:55:59;96059.19;;;5.30;55.46
21182;BME280;10749;46.296;7.524;2022-12-18T11:01:11;96066.41;;;5.50;55.31
21182;BME280;10749;46.296;7.524;2022-12-18T11:03:44;96063.63;;;5.74;55.26
21182;BME280;10749;46.296;7.524;2022-12-18T11:06:28;96062.81;;;5.96;55.38
21182;BME280;10749;46.296;7.524;2022-12-18T11:09:05;96057.78;;;6.04;55.18
21182;BME280;10749;46.296;7.524;2022-12-18T11:11:32;96055.13;;;6.15;55.17
21182;BME280;10749;46.296;7.524;2022-12-18T11:16:26;96043.63;;;6.27;54.96
21182;BME280;10749;46.296;7.524;2022-12-18T11:18:52;96044.75;;;6.45;54.96
21182;BME280;10749;46.296;7.524;2022-12-18T11:21:18;96039.50;;;6.45;54.78
21182;BME280;10749;46.296;7.524;2022-12-18T11:23:50;96043.97;;;6.55;54.59
21182;BME280;10749;46.296;7.524;2022-12-18T11:26:16;96043.22;;;6.64;54.45
21182;BME280;10749;46.296;7.524;2022-12-18T11:28:46;96041.06;;;6.69;54.43
21182;BME280;10749;46.296;7.524;2022-12-18T11:31:28;96033.63;;;6.74;54.43
21182;BME280;10749;46.296;7.524;2022-12-18T11:34:10;96048.13;;;6.89;54.29
21182;BME280;10749;46.296;7.524;2022-12-18T11:36:41;96039.09;;;7.03;54.22
21182;BME280;10749;46.296;7.524;2022-12-18T11:44:55;96031.59;;;7.59;54.14
21182;BME280;10749;46.296;7.524;2022-12-18T11:47:44;96020.00;;;7.71;54.01
21182;BME280;10749;46.296;7.524;2022-12-18T11:50:18;96017.84;;;7.85;53.99
21182;BME280;10749;46.296;7.524;2022-12-18T11:52:44;96005.66;;;8.04;53.96
21182;BME280;10749;46.296;7.524;2022-12-18T11:58:16;96005.00;;;8.11;53.59
21182;BME280;10749;46.296;7.524;2022-12-18T12:00:58;96000.28;;;8.15;53.48
21182;BME280;10749;46.296;7.524;2022-12-18T12:09:17;95992.06;;;8.08;52.83
21182;BME280;10749;46.296;7.524;2022-12-18T12:15:13;95978.19;;;8.06;52.37
21182;BME280;10749;46.296;7.524;2022-12-18T12:17:47;95972.94;;;8.25;52.39
21182;BME280;10749;46.296;7.524;2022-12-18T12:20:22;95970.47;;;8.53;52.68
21182;BME280;10749;46.296;7.524;2022-12-18T12:26:03;95960.19;;;8.69;52.44
21182;BME280;10749;46.296;7.524;2022-12-18T12:39:27;95948.78;;;8.20;51.80
21182;BME280;10749;46.296;7.524;2022-12-18T12:41:54;95941.72;;;8.30;51.45
21182;BME280;10749;46.296;7.524;2022-12-18T12:44:52;95935.50;;;8.31;51.62
21182;BME280;10749;46.296;7.524;2022-12-18T12:47:33;95929.34;;;8.21;51.48
21182;BME280;10749;46.296;7.524;2022-12-18T12:50:04;95926.28;;;8.16;51.14
21182;BME280;10749;46.296;7.524;2022-12-18T12:52:35;95931.56;;;8.16;51.38
21182;BME280;10749;46.296;7.524;2022-12-18T12:55:14;95918.50;;;8.05;51.28
21182;BME280;10749;46.296;7.524;2022-12-18T12:57:54;95916.84;;;8.04;51.11
21182;BME280;10749;46.296;7.524;2022-12-18T13:00:21;95917.69;;;8.14;50.80
21182;BME280;10749;46.296;7.524;2022-12-18T13:05:56;95907.81;;;7.97;50.57
21182;BME280;10749;46.296;7.524;2022-12-18T13:08:31;95902.41;;;7.89;50.56
21182;BME280;10749;46.296;7.524;2022-12-18T13:10:58;95895.88;;;7.74;50.69
21182;BME280;10749;46.296;7.524;2022-12-18T13:13:54;95900.44;;;7.72;50.52
21182;BME280;10749;46.296;7.524;2022-12-18T13:16:24;95898.78;;;7.71;50.34
21182;BME280;10749;46.296;7.524;2022-12-18T13:18:51;95901.81;;;7.57;50.40
21182;BME280;10749;46.296;7.524;2022-12-18T13:21:24;95903.75;;;7.55;50.60
21182;BME280;10749;46.296;7.524;2022-12-18T13:23:52;95902.22;;;7.52;50.42
21182;BME280;10749;46.296;7.524;2022-12-18T13:34:25;95916.75;;;7.37;50.41
21182;BME280;10749;46.296;7.524;2022-12-18T13:36:52;95916.19;;;7.43;50.47
21182;BME280;10749;46.296;7.524;2022-12-18T13:41:44;95909.88;;;7.65;50.55
21182;BME280;10749;46.296;7.524;2022-12-18T13:44:33;95907.53;;;7.62;50.52
21182;BME280;10749;46.296;7.524;2022-12-18T13:47:01;95901.97;;;7.65;50.34
21182;BME280;10749;46.296;7.524;2022-12-18T13:49:43;95910.31;;;7.70;50.20
21182;BME280;10749;46.296;7.524;2022-12-18T13:52:18;95901.56;;;7.69;49.99
21182;BME280;10749;46.296;7.524;2022-12-18T13:54:49;95907.09;;;7.66;49.95
21182;BME280;10749;46.296;7.524;2022-12-18T13:57:28;95906.00;;;7.69;50.08
21182;BME280;10749;46.296;7.524;2022-12-18T13:59:55;95910.00;;;7.63;49.96
21182;BME280;10749;46.296;7.524;2022-12-18T14:02:22;95908.75;;;7.67;49.88
21182;BME280;10749;46.296;7.524;2022-12-18T14:04:49;95909.59;;;7.68;50.00
21182;BME280;10749;46.296;7.524;2022-12-18T14:07:17;95916.50;;;7.59;49.90
21182;BME280;10749;46.296;7.524;2022-12-18T14:09:49;95910.16;;;7.62;49.89
21182;BME280;10749;46.296;7.524;2022-12-18T14:12:24;95912.22;;;7.68;49.85
21182;BME280;10749;46.296;7.524;2022-12-18T14:15:32;95914.44;;;7.63;49.67
21182;BME280;10749;46.296;7.524;2022-12-18T14:20:31;95910.00;;;7.63;49.54
21182;BME280;10749;46.296;7.524;2022-12-18T14:22:57;95913.47;;;7.64;49.82
21182;BME280;10749;46.296;7.524;2022-12-18T14:25:27;95910.00;;;7.63;49.86
21182;BME280;10749;46.296;7.524;2022-12-18T14:30:32;95910.41;;;7.49;49.80
21182;BME280;10749;46.296;7.524;2022-12-18T14:33:01;95920.63;;;7.42;49.75
21182;BME280;10749;46.296;7.524;2022-12-18T14:35:27;95913.97;;;7.38;49.44
21182;BME280;10749;46.296;7.524;2022-12-18T14:40:35;95912.53;;;7.25;49.34
21182;BME280;10749;46.296;7.524;2022-12-18T14:43:00;95904.59;;;7.15;49.15
21182;BME280;10749;46.296;7.524;2022-12-18T14:45:44;95913.00;;;7.00;49.04
21182;BME280;10749;46.296;7.524;2022-12-18T14:48:16;95912.69;;;6.93;49.05
21182;BME280;10749;46.296;7.524;2022-12-18T14:50:44;95907.50;;;6.82;49.05
21182;BME280;10749;46.296;7.524;2022-12-18T14:53:22;95913.72;;;6.81;48.99
21182;BME280;10749;46.296;7.524;2022-12-18T14:55:49;95910.66;;;6.76;49.06
21182;BME280;10749;46.296;7.524;2022-12-18T14:58:16;95906.88;;;6.69;48.88
21182;BME280;10749;46.296;7.524;2022-12-18T15:00:42;95917.66;;;6.66;48.86
21182;BME280;10749;46.296;7.524;2022-12-18T15:03:08;95917.22;;;6.61;48.68
21182;BME280;10749;46.296;7.524;2022-12-18T15:05:35;95915.94;;;6.55;48.77